sensor_id;sensor_type;location;lat;lon;timestamp;pressure;altitude;pressure_sealevel;temperature;humidity
66430;BME280;53242;51.694;10.006;2023-05-07T00:01:52;99818.75;;;12.10;79.63
66430;BME280;53242;51.694;10.006;2023-05-07T00:04:15;99826.06;;;12.14;79.29
66430;BME280;53242;51.694;10.006;2023-05-07T00:06:37;99819.94;;;12.07;79.46
66430;BME280;53242;51.694;10.006;2023-05-07T00:09:00;99809.13;;;11.95;80.52
66430;BME280;53242;51.694;10.006;2023-05-07T00:11:23;99810.34;;;11.99;80.37
66430;BME280;53242;51.694;10.006;2023-05-07T00:13:45;99805.19;;;11.91;80.95
66430;BME280;53242;51.694;10.006;2023-05-07T00:16:08;99817.06;;;12.02;79.91
66430;BME280;53242;51.694;10.006;2023-05-07T00:18:30;99818.22;;;11.93;79.83
66430;BME280;53242;51.694;10.006;2023-05-07T00:20:53;99817.06;;;11.95;80.79
66430;BME280;53242;51.694;10.006;2023-05-07T00:23:15;99813.66;;;12.08;79.67
66430;BME280;53242;51.694;10.006;2023-05-07T00:25:38;99802.63;;;11.98;80.09
66430;BME280;53242;51.694;10.006;2023-05-07T00:28:00;99809.03;;;11.89;80.83
66430;BME280;53242;51.694;10.006;2023-05-07T00:30:25;99804.09;;;11.79;81.47
66430;BME280;53242;51.694;10.006;2023-05-07T00:32:48;99801.94;;;11.89;81.14
66430;BME280;53242;51.694;10.006;2023-05-07T00:35:11;99804.56;;;11.89;80.79
66430;BME280;53242;51.694;10.006;2023-05-07T00:37:33;99800.63;;;11.78;81.60
66430;BME280;53242;51.694;10.006;2023-05-07T00:39:56;99802.28;;;11.86;81.58
66430;BME280;53242;51.694;10.006;2023-05-07T00:42:18;99808.16;;;11.75;82.02
66430;BME280;53242;51.694;10.006;2023-05-07T00:44:40;99808.19;;;11.81;81.40
66430;BME280;53242;51.694;10.006;2023-05-07T00:47:04;99806.72;;;12.07;80.16
66430;BME280;53242;51.694;10.006;2023-05-07T00:49:41;99812.09;;;11.92;81.12
66430;BME280;53242;51.694;10.006;2023-05-07T00:52:06;99803.56;;;11.90;80.75
66430;BME280;53242;51.694;10.006;2023-05-07T00:54:28;99812.03;;;12.14;79.84
66430;BME280;53242;51.694;10.006;2023-05-07T00:56:51;99807.19;;;12.17;79.37
66430;BME280;53242;51.694;10.006;2023-05-07T00:59:14;99796.28;;;11.99;80.25
66430;BME280;53242;51.694;10.006;2023-05-07T01:01:37;99799.13;;;11.97;80.22
66430;BME280;53242;51.694;10.006;2023-05-07T01:03:59;99799.25;;;11.82;80.82
66430;BME280;53242;51.694;10.006;2023-05-07T01:06:23;99805.06;;;11.71;81.25
66430;BME280;53242;51.694;10.006;2023-05-07T01:08:48;99798.38;;;11.75;80.65
66430;BME280;53242;51.694;10.006;2023-05-07T01:11:13;99803.72;;;11.89;80.69
66430;BME280;53242;51.694;10.006;2023-05-07T01:13:36;99805.19;;;11.56;82.51
66430;BME280;53242;51.694;10.006;2023-05-07T01:15:59;99806.78;;;11.85;80.73
66430;BME280;53242;51.694;10.006;2023-05-07T01:18:22;99808.78;;;11.83;80.65
66430;BME280;53242;51.694;10.006;2023-05-07T01:20:45;99808.31;;;11.73;81.20
66430;BME280;53242;51.694;10.006;2023-05-07T01:23:08;99806.00;;;11.92;80.15
66430;BME280;53242;51.694;10.006;2023-05-07T01:25:32;99805.09;;;11.78;80.35
66430;BME280;53242;51.694;10.006;2023-05-07T01:27:56;99813.75;;;11.93;79.80
66430;BME280;53242;51.694;10.006;2023-05-07T01:30:23;99807.66;;;11.93;79.57
66430;BME280;53242;51.694;10.006;2023-05-07T01:32:52;99810.56;;;11.98;79.17
66430;BME280;53242;51.694;10.006;2023-05-07T01:35:18;99808.41;;;11.87;79.37
66430;BME280;53242;51.694;10.006;2023-05-07T01:37:42;99826.06;;;11.79;79.64
66430;BME280;53242;51.694;10.006;2023-05-07T01:40:05;99815.72;;;11.84;79.17
66430;BME280;53242;51.694;10.006;2023-05-07T01:42:29;99807.72;;;11.71;79.63
66430;BME280;53242;51.694;10.006;2023-05-07T01:44:52;99813.94;;;11.57;80.14
66430;BME280;53242;51.694;10.006;2023-05-07T01:47:14;99813.81;;;11.43;81.12
66430;BME280;53242;51.694;10.006;2023-05-07T01:49:36;99811.41;;;11.48;80.41
66430;BME280;53242;51.694;10.006;2023-05-07T01:51:59;99821.75;;;11.43;80.91
66430;BME280;53242;51.694;10.006;2023-05-07T01:54:25;99813.03;;;11.43;81.02
66430;BME280;53242;51.694;10.006;2023-05-07T01:56:50;99801.81;;;11.41;80.69
66430;BME280;53242;51.694;10.006;2023-05-07T01:59:13;99820.41;;;11.26;81.29
66430;BME280;53242;51.694;10.006;2023-05-07T02:01:35;99802.16;;;11.31;81.33
66430;BME280;53242;51.694;10.006;2023-05-07T02:03:58;99801.38;;;11.37;80.54
66430;BME280;53242;51.694;10.006;2023-05-07T02:06:23;99810.38;;;11.43;80.01
66430;BME280;53242;51.694;10.006;2023-05-07T02:08:47;99808.50;;;11.37;80.33
66430;BME280;53242;51.694;10.006;2023-05-07T02:11:11;99816.69;;;11.20;81.10
66430;BME280;53242;51.694;10.006;2023-05-07T02:13:33;99822.22;;;11.25;80.52
66430;BME280;53242;51.694;10.006;2023-05-07T02:15:59;99817.03;;;11.10;81.30
66430;BME280;53242;51.694;10.006;2023-05-07T02:18:23;99817.59;;;11.06;81.47
66430;BME280;53242;51.694;10.006;2023-05-07T02:20:45;99815.06;;;11.19;81.07
66430;BME280;53242;51.694;10.006;2023-05-07T02:23:08;99816.34;;;11.01;81.47
66430;BME280;53242;51.694;10.006;2023-05-07T02:25:30;99820.72;;;11.16;80.72
66430;BME280;53242;51.694;10.006;2023-05-07T02:27:52;99818.22;;;11.08;81.29
66430;BME280;53242;51.694;10.006;2023-05-07T02:30:18;99829.34;;;11.25;80.46
66430;BME280;53242;51.694;10.006;2023-05-07T02:32:43;99825.31;;;11.07;80.91
66430;BME280;53242;51.694;10.006;2023-05-07T02:35:06;99832.50;;;11.13;80.49
66430;BME280;53242;51.694;10.006;2023-05-07T02:37:28;99835.88;;;11.07;80.78
66430;BME280;53242;51.694;10.006;2023-05-07T02:39:50;99824.06;;;10.81;82.42
66430;BME280;53242;51.694;10.006;2023-05-07T02:42:13;99824.97;;;10.89;82.17
66430;BME280;53242;51.694;10.006;2023-05-07T02:44:35;99833.38;;;10.99;81.44
66430;BME280;53242;51.694;10.006;2023-05-07T02:46:58;99834.69;;;10.66;82.66
66430;BME280;53242;51.694;10.006;2023-05-07T02:49:20;99840.66;;;10.75;82.17
66430;BME280;53242;51.694;10.006;2023-05-07T02:51:46;99840.06;;;10.95;81.50
66430;BME280;53242;51.694;10.006;2023-05-07T02:54:14;99841.25;;;10.92;81.45
66430;BME280;53242;51.694;10.006;2023-05-07T02:56:37;99845.56;;;10.78;82.15
66430;BME280;53242;51.694;10.006;2023-05-07T02:58:59;99831.22;;;10.88;81.64
66430;BME280;53242;51.694;10.006;2023-05-07T03:01:25;99827.94;;;10.85;81.95
66430;BME280;53242;51.694;10.006;2023-05-07T03:03:58;99838.44;;;10.79;82.29
66430;BME280;53242;51.694;10.006;2023-05-07T03:06:21;99830.78;;;10.84;82.43
66430;BME280;53242;51.694;10.006;2023-05-07T03:08:43;99848.22;;;10.78;82.51
66430;BME280;53242;51.694;10.006;2023-05-07T03:11:06;99830.03;;;10.90;81.98
66430;BME280;53242;51.694;10.006;2023-05-07T03:13:28;99820.66;;;10.66;83.15
66430;BME280;53242;51.694;10.006;2023-05-07T03:15:51;99815.78;;;10.84;82.05
66430;BME280;53242;51.694;10.006;2023-05-07T03:18:13;99826.00;;;10.73;81.86
66430;BME280;53242;51.694;10.006;2023-05-07T03:20:36;99816.34;;;10.80;82.38
66430;BME280;53242;51.694;10.006;2023-05-07T03:22:59;99816.72;;;10.77;82.58
66430;BME280;53242;51.694;10.006;2023-05-07T03:25:21;99824.19;;;10.73;82.54
66430;BME280;53242;51.694;10.006;2023-05-07T03:27:44;99826.00;;;10.73;83.09
66430;BME280;53242;51.694;10.006;2023-05-07T03:30:07;99821.88;;;10.85;81.82
66430;BME280;53242;51.694;10.006;2023-05-07T03:32:29;99820.03;;;10.64;82.82
66430;BME280;53242;51.694;10.006;2023-05-07T03:34:52;99821.50;;;10.66;82.20
66430;BME280;53242;51.694;10.006;2023-05-07T03:37:14;99832.53;;;10.55;82.72
66430;BME280;53242;51.694;10.006;2023-05-07T03:39:37;99834.44;;;10.61;82.48
66430;BME280;53242;51.694;10.006;2023-05-07T03:42:00;99835.88;;;10.64;82.51
66430;BME280;53242;51.694;10.006;2023-05-07T03:44:23;99837.88;;;10.62;82.33
66430;BME280;53242;51.694;10.006;2023-05-07T03:46:47;99832.97;;;10.59;82.13
66430;BME280;53242;51.694;10.006;2023-05-07T03:49:09;99831.22;;;10.51;82.51
66430;BME280;53242;51.694;10.006;2023-05-07T03:51:32;99836.91;;;10.48;82.42
66430;BME280;53242;51.694;10.006;2023-05-07T03:53:55;99830.63;;;10.49;82.81
66430;BME280;53242;51.694;10.006;2023-05-07T03:56:20;99837.88;;;10.62;81.50
66430;BME280;53242;51.694;10.006;2023-05-07T03:58:47;99843.16;;;10.62;81.75
66430;BME280;53242;51.694;10.006;2023-05-07T04:01:09;99840.78;;;10.52;81.99
66430;BME280;53242;51.694;10.006;2023-05-07T04:03:32;99838.88;;;10.46;81.72
66430;BME280;53242;51.694;10.006;2023-05-07T04:05:56;99837.91;;;10.32;82.40
66430;BME280;53242;51.694;10.006;2023-05-07T04:08:19;99860.13;;;10.38;82.04
66430;BME280;53242;51.694;10.006;2023-05-07T04:10:44;99857.94;;;10.41;81.86
66430;BME280;53242;51.694;10.006;2023-05-07T04:13:07;99860.38;;;10.43;81.88
66430;BME280;53242;51.694;10.006;2023-05-07T04:15:30;99858.00;;;10.63;80.86
66430;BME280;53242;51.694;10.006;2023-05-07T04:17:53;99856.63;;;10.22;82.32
66430;BME280;53242;51.694;10.006;2023-05-07T04:20:18;99855.03;;;10.36;81.75
66430;BME280;53242;51.694;10.006;2023-05-07T04:22:44;99863.63;;;10.30;81.97
66430;BME280;53242;51.694;10.006;2023-05-07T04:25:08;99866.28;;;10.30;81.93
66430;BME280;53242;51.694;10.006;2023-05-07T04:27:32;99870.28;;;10.26;81.88
66430;BME280;53242;51.694;10.006;2023-05-07T04:29:54;99870.38;;;10.32;81.57
66430;BME280;53242;51.694;10.006;2023-05-07T04:32:18;99869.75;;;10.45;81.14
66430;BME280;53242;51.694;10.006;2023-05-07T04:34:40;99873.50;;;10.36;81.87
66430;BME280;53242;51.694;10.006;2023-05-07T04:37:03;99866.19;;;10.53;80.78
66430;BME280;53242;51.694;10.006;2023-05-07T04:39:26;99874.38;;;10.28;82.23
66430;BME280;53242;51.694;10.006;2023-05-07T04:41:48;99872.66;;;10.50;81.08
66430;BME280;53242;51.694;10.006;2023-05-07T04:44:11;99867.66;;;10.41;81.45
66430;BME280;53242;51.694;10.006;2023-05-07T04:46:34;99874.13;;;10.38;81.82
66430;BME280;53242;51.694;10.006;2023-05-07T04:48:56;99871.47;;;10.53;80.97
66430;BME280;53242;51.694;10.006;2023-05-07T04:51:19;99884.78;;;10.45;81.48
66430;BME280;53242;51.694;10.006;2023-05-07T04:53:42;99894.22;;;10.39;81.46
66430;BME280;53242;51.694;10.006;2023-05-07T04:56:05;99892.31;;;10.48;81.74
66430;BME280;53242;51.694;10.006;2023-05-07T04:58:34;99893.75;;;10.50;81.18
66430;BME280;53242;51.694;10.006;2023-05-07T05:00:58;99897.69;;;10.40;81.61
66430;BME280;53242;51.694;10.006;2023-05-07T05:03:20;99901.31;;;10.53;81.53
66430;BME280;53242;51.694;10.006;2023-05-07T05:05:43;99897.97;;;10.45;81.97
66430;BME280;53242;51.694;10.006;2023-05-07T05:08:05;99889.47;;;10.64;81.14
66430;BME280;53242;51.694;10.006;2023-05-07T05:10:30;99893.94;;;10.64;81.23
66430;BME280;53242;51.694;10.006;2023-05-07T05:12:53;99898.06;;;10.36;82.43
66430;BME280;53242;51.694;10.006;2023-05-07T05:15:17;99898.59;;;10.32;82.84
66430;BME280;53242;51.694;10.006;2023-05-07T05:17:40;99893.50;;;10.45;82.45
66430;BME280;53242;51.694;10.006;2023-05-07T05:20:03;99903.97;;;10.39;82.82
66430;BME280;53242;51.694;10.006;2023-05-07T05:22:26;99908.50;;;10.30;83.34
66430;BME280;53242;51.694;10.006;2023-05-07T05:24:52;99908.31;;;10.31;83.40
66430;BME280;53242;51.694;10.006;2023-05-07T05:27:15;99903.47;;;10.35;83.10
66430;BME280;53242;51.694;10.006;2023-05-07T05:29:37;99905.69;;;10.46;82.87
66430;BME280;53242;51.694;10.006;2023-05-07T05:32:00;99914.88;;;10.50;82.30
66430;BME280;53242;51.694;10.006;2023-05-07T05:34:24;99906.97;;;10.50;82.39
66430;BME280;53242;51.694;10.006;2023-05-07T05:36:46;99914.03;;;10.35;83.13
66430;BME280;53242;51.694;10.006;2023-05-07T05:39:10;99914.78;;;10.44;83.05
66430;BME280;53242;51.694;10.006;2023-05-07T05:41:33;99908.31;;;10.31;83.89
66430;BME280;53242;51.694;10.006;2023-05-07T05:43:55;99911.41;;;10.35;83.41
66430;BME280;53242;51.694;10.006;2023-05-07T05:46:18;99919.44;;;10.57;82.78
66430;BME280;53242;51.694;10.006;2023-05-07T05:48:40;99913.63;;;10.46;83.94
66430;BME280;53242;51.694;10.006;2023-05-07T05:51:03;99921.59;;;10.38;83.50
66430;BME280;53242;51.694;10.006;2023-05-07T05:53:25;99918.88;;;10.16;85.17
66430;BME280;53242;51.694;10.006;2023-05-07T05:55:48;99921.88;;;10.28;84.41
66430;BME280;53242;51.694;10.006;2023-05-07T05:58:10;99925.03;;;10.24;85.36
66430;BME280;53242;51.694;10.006;2023-05-07T06:00:37;99921.03;;;10.28;85.01
66430;BME280;53242;51.694;10.006;2023-05-07T06:03:01;99924.09;;;10.40;85.47
66430;BME280;53242;51.694;10.006;2023-05-07T06:05:23;99921.31;;;10.33;85.36
66430;BME280;53242;51.694;10.006;2023-05-07T06:07:48;99914.94;;;10.57;83.86
66430;BME280;53242;51.694;10.006;2023-05-07T06:10:11;99922.31;;;10.17;85.76
66430;BME280;53242;51.694;10.006;2023-05-07T06:12:34;99921.59;;;10.23;86.26
66430;BME280;53242;51.694;10.006;2023-05-07T06:14:56;99919.16;;;10.36;85.39
66430;BME280;53242;51.694;10.006;2023-05-07T06:17:20;99923.78;;;10.19;86.02
66430;BME280;53242;51.694;10.006;2023-05-07T06:19:43;99919.22;;;10.28;85.47
66430;BME280;53242;51.694;10.006;2023-05-07T06:22:06;99919.41;;;10.27;85.84
66430;BME280;53242;51.694;10.006;2023-05-07T06:24:30;99923.06;;;10.26;85.12
66430;BME280;53242;51.694;10.006;2023-05-07T06:26:52;99926.50;;;10.26;84.54
66430;BME280;53242;51.694;10.006;2023-05-07T06:29:15;99927.81;;;10.45;84.17
66430;BME280;53242;51.694;10.006;2023-05-07T06:31:38;99948.34;;;10.35;85.02
66430;BME280;53242;51.694;10.006;2023-05-07T06:34:04;99924.31;;;10.30;84.84
66430;BME280;53242;51.694;10.006;2023-05-07T06:36:33;99924.72;;;10.42;85.11
66430;BME280;53242;51.694;10.006;2023-05-07T06:38:59;99924.97;;;10.32;84.44
66430;BME280;53242;51.694;10.006;2023-05-07T06:41:22;99929.63;;;10.45;84.13
66430;BME280;53242;51.694;10.006;2023-05-07T06:43:44;99942.41;;;10.33;84.53
66430;BME280;53242;51.694;10.006;2023-05-07T06:46:22;99945.78;;;10.27;84.28
66430;BME280;53242;51.694;10.006;2023-05-07T06:48:45;99932.44;;;10.43;83.33
66430;BME280;53242;51.694;10.006;2023-05-07T06:51:07;99939.09;;;10.39;83.32
66430;BME280;53242;51.694;10.006;2023-05-07T06:53:30;99944.72;;;10.36;83.70
66430;BME280;53242;51.694;10.006;2023-05-07T06:55:54;99939.91;;;10.40;83.19
66430;BME280;53242;51.694;10.006;2023-05-07T06:58:17;99947.66;;;10.41;83.23
66430;BME280;53242;51.694;10.006;2023-05-07T07:00:39;99941.09;;;10.37;83.21
66430;BME280;53242;51.694;10.006;2023-05-07T07:03:03;99948.53;;;10.48;82.76
66430;BME280;53242;51.694;10.006;2023-05-07T07:05:26;99950.38;;;10.48;82.98
66430;BME280;53242;51.694;10.006;2023-05-07T07:07:49;99947.47;;;10.43;83.39
66430;BME280;53242;51.694;10.006;2023-05-07T07:10:15;99967.19;;;10.47;82.82
66430;BME280;53242;51.694;10.006;2023-05-07T07:12:37;99951.63;;;10.52;82.54
66430;BME280;53242;51.694;10.006;2023-05-07T07:15:00;99952.00;;;10.64;81.94
66430;BME280;53242;51.694;10.006;2023-05-07T07:17:23;99959.38;;;10.53;82.13
66430;BME280;53242;51.694;10.006;2023-05-07T07:19:46;99950.56;;;10.61;81.66
66430;BME280;53242;51.694;10.006;2023-05-07T07:22:08;99949.19;;;10.50;81.88
66430;BME280;53242;51.694;10.006;2023-05-07T07:24:31;99950.00;;;10.36;82.21
66430;BME280;53242;51.694;10.006;2023-05-07T07:26:57;99955.47;;;10.49;81.52
66430;BME280;53242;51.694;10.006;2023-05-07T07:29:21;99964.19;;;10.65;81.28
66430;BME280;53242;51.694;10.006;2023-05-07T07:31:44;99960.09;;;10.62;81.57
66430;BME280;53242;51.694;10.006;2023-05-07T07:34:06;99960.81;;;10.71;81.26
66430;BME280;53242;51.694;10.006;2023-05-07T07:36:29;99973.13;;;10.64;81.25
66430;BME280;53242;51.694;10.006;2023-05-07T07:38:53;99977.50;;;10.57;81.62
66430;BME280;53242;51.694;10.006;2023-05-07T07:41:15;99974.84;;;10.57;81.55
66430;BME280;53242;51.694;10.006;2023-05-07T07:43:38;99974.47;;;10.60;81.49
66430;BME280;53242;51.694;10.006;2023-05-07T07:46:01;99964.28;;;10.57;81.46
66430;BME280;53242;51.694;10.006;2023-05-07T07:48:23;99971.91;;;10.81;80.76
66430;BME280;53242;51.694;10.006;2023-05-07T07:50:48;99971.84;;;10.60;81.12
66430;BME280;53242;51.694;10.006;2023-05-07T07:53:13;99974.94;;;10.78;79.82
66430;BME280;53242;51.694;10.006;2023-05-07T07:55:39;99981.78;;;10.58;80.04
66430;BME280;53242;51.694;10.006;2023-05-07T07:58:02;99980.56;;;10.75;79.88
66430;BME280;53242;51.694;10.006;2023-05-07T08:00:24;99968.00;;;10.77;79.74
66430;BME280;53242;51.694;10.006;2023-05-07T08:02:51;99968.53;;;11.02;78.65
66430;BME280;53242;51.694;10.006;2023-05-07T08:05:19;99973.91;;;10.94;78.70
66430;BME280;53242;51.694;10.006;2023-05-07T08:07:42;99982.00;;;10.93;78.84
66430;BME280;53242;51.694;10.006;2023-05-07T08:10:04;99990.94;;;10.92;79.22
66430;BME280;53242;51.694;10.006;2023-05-07T08:12:27;99985.16;;;11.18;78.33
66430;BME280;53242;51.694;10.006;2023-05-07T08:14:50;99990.19;;;11.13;78.58
66430;BME280;53242;51.694;10.006;2023-05-07T08:17:12;99990.44;;;11.18;78.32
66430;BME280;53242;51.694;10.006;2023-05-07T08:19:38;99993.03;;;10.96;78.65
66430;BME280;53242;51.694;10.006;2023-05-07T08:22:03;99997.13;;;10.99;78.03
66430;BME280;53242;51.694;10.006;2023-05-07T08:24:26;99985.69;;;11.28;76.87
66430;BME280;53242;51.694;10.006;2023-05-07T08:26:49;99988.41;;;11.20;77.91
66430;BME280;53242;51.694;10.006;2023-05-07T08:29:12;99984.72;;;11.14;77.80
66430;BME280;53242;51.694;10.006;2023-05-07T08:31:34;99977.81;;;11.35;76.94
66430;BME280;53242;51.694;10.006;2023-05-07T08:33:58;99974.84;;;11.23;77.20
66430;BME280;53242;51.694;10.006;2023-05-07T08:36:21;99978.31;;;11.24;77.23
66430;BME280;53242;51.694;10.006;2023-05-07T08:38:43;99977.81;;;11.35;76.33
66430;BME280;53242;51.694;10.006;2023-05-07T08:41:10;99976.88;;;11.43;76.23
66430;BME280;53242;51.694;10.006;2023-05-07T08:43:36;99967.16;;;11.50;76.14
66430;BME280;53242;51.694;10.006;2023-05-07T08:46:00;99974.00;;;11.23;76.25
66430;BME280;53242;51.694;10.006;2023-05-07T08:48:27;99982.63;;;11.46;76.20
66430;BME280;53242;51.694;10.006;2023-05-07T08:51:02;99971.63;;;11.28;76.32
66430;BME280;53242;51.694;10.006;2023-05-07T08:53:24;99988.22;;;11.22;76.13
66430;BME280;53242;51.694;10.006;2023-05-07T08:55:48;99989.78;;;11.31;75.84
66430;BME280;53242;51.694;10.006;2023-05-07T08:58:11;99983.81;;;11.44;75.97
66430;BME280;53242;51.694;10.006;2023-05-07T09:00:36;99991.56;;;11.67;75.23
66430;BME280;53242;51.694;10.006;2023-05-07T09:03:00;99987.91;;;11.46;76.27
66430;BME280;53242;51.694;10.006;2023-05-07T09:05:23;99990.16;;;11.49;75.70
66430;BME280;53242;51.694;10.006;2023-05-07T09:07:46;99994.28;;;11.37;76.12
66430;BME280;53242;51.694;10.006;2023-05-07T09:10:10;99993.34;;;11.45;75.93
66430;BME280;53242;51.694;10.006;2023-05-07T09:12:35;100005.47;;;11.54;75.03
66430;BME280;53242;51.694;10.006;2023-05-07T09:14:59;100002.72;;;11.47;75.47
66430;BME280;53242;51.694;10.006;2023-05-07T09:17:22;99993.69;;;11.57;75.46
66430;BME280;53242;51.694;10.006;2023-05-07T09:19:45;99995.81;;;11.90;74.51
66430;BME280;53242;51.694;10.006;2023-05-07T09:22:08;100012.69;;;11.89;73.85
66430;BME280;53242;51.694;10.006;2023-05-07T09:24:47;99998.09;;;11.71;74.08
66430;BME280;53242;51.694;10.006;2023-05-07T09:27:10;99997.84;;;11.88;73.24
66430;BME280;53242;51.694;10.006;2023-05-07T09:29:35;100009.28;;;11.95;73.42
66430;BME280;53242;51.694;10.006;2023-05-07T09:32:00;99997.97;;;12.01;73.63
66430;BME280;53242;51.694;10.006;2023-05-07T09:34:22;100008.47;;;11.73;74.08
66430;BME280;53242;51.694;10.006;2023-05-07T09:36:45;99999.69;;;11.94;74.29
66430;BME280;53242;51.694;10.006;2023-05-07T09:39:08;100008.59;;;11.86;74.18
66430;BME280;53242;51.694;10.006;2023-05-07T09:41:30;100004.69;;;12.04;73.82
66430;BME280;53242;51.694;10.006;2023-05-07T09:44:01;99994.31;;;12.30;72.80
66430;BME280;53242;51.694;10.006;2023-05-07T09:46:32;99994.31;;;12.30;73.00
66430;BME280;53242;51.694;10.006;2023-05-07T09:49:01;99998.28;;;12.48;73.28
66430;BME280;53242;51.694;10.006;2023-05-07T09:51:28;99996.28;;;12.22;73.20
66430;BME280;53242;51.694;10.006;2023-05-07T09:53:53;99997.97;;;12.01;73.39
66430;BME280;53242;51.694;10.006;2023-05-07T09:56:17;99993.44;;;12.23;72.53
66430;BME280;53242;51.694;10.006;2023-05-07T09:58:41;100000.84;;;12.34;72.16
66430;BME280;53242;51.694;10.006;2023-05-07T10:01:04;100011.75;;;11.96;72.46
66430;BME280;53242;51.694;10.006;2023-05-07T10:03:29;100007.16;;;12.33;72.00
66430;BME280;53242;51.694;10.006;2023-05-07T10:05:58;100005.94;;;12.08;72.38
66430;BME280;53242;51.694;10.006;2023-05-07T10:08:20;100006.28;;;12.55;71.67
66430;BME280;53242;51.694;10.006;2023-05-07T10:10:46;100003.69;;;12.61;71.66
66430;BME280;53242;51.694;10.006;2023-05-07T10:13:13;100004.13;;;12.72;70.44
66430;BME280;53242;51.694;10.006;2023-05-07T10:15:41;100006.94;;;12.63;70.96
66430;BME280;53242;51.694;10.006;2023-05-07T10:18:06;100007.00;;;12.77;70.36
66430;BME280;53242;51.694;10.006;2023-05-07T10:20:29;100015.41;;;12.87;70.52
66430;BME280;53242;51.694;10.006;2023-05-07T10:22:52;100009.03;;;12.75;70.94
66430;BME280;53242;51.694;10.006;2023-05-07T10:25:25;100010.94;;;12.94;70.51
66430;BME280;53242;51.694;10.006;2023-05-07T10:27:51;100011.69;;;13.16;69.99
66430;BME280;53242;51.694;10.006;2023-05-07T10:31:07;100003.28;;;13.06;69.44
66430;BME280;53242;51.694;10.006;2023-05-07T10:33:11;100012.19;;;13.47;68.99
66430;BME280;53242;51.694;10.006;2023-05-07T10:35:41;100015.66;;;13.41;68.27
66430;BME280;53242;51.694;10.006;2023-05-07T10:38:05;100012.28;;;13.19;69.19
66430;BME280;53242;51.694;10.006;2023-05-07T10:40:30;100012.44;;;13.59;68.21
66430;BME280;53242;51.694;10.006;2023-05-07T10:42:57;100007.13;;;13.86;67.84
66430;BME280;53242;51.694;10.006;2023-05-07T10:45:23;100018.53;;;13.66;68.21
66430;BME280;53242;51.694;10.006;2023-05-07T10:48:06;100019.16;;;13.68;67.34
66430;BME280;53242;51.694;10.006;2023-05-07T10:50:28;100018.31;;;13.47;68.46
66430;BME280;53242;51.694;10.006;2023-05-07T10:53:20;100026.69;;;13.58;67.16
66430;BME280;53242;51.694;10.006;2023-05-07T10:58:44;100013.75;;;13.28;68.60
66430;BME280;53242;51.694;10.006;2023-05-07T11:01:53;100020.28;;;13.32;67.87
66430;BME280;53242;51.694;10.006;2023-05-07T11:04:24;100017.69;;;13.39;68.55
66430;BME280;53242;51.694;10.006;2023-05-07T11:15:37;100014.50;;;13.84;66.64
66430;BME280;53242;51.694;10.006;2023-05-07T11:18:03;100013.47;;;13.85;67.24
66430;BME280;53242;51.694;10.006;2023-05-07T11:20:52;100010.22;;;14.16;65.84
66430;BME280;53242;51.694;10.006;2023-05-07T11:26:05;100007.38;;;13.97;66.55
66430;BME280;53242;51.694;10.006;2023-05-07T11:28:30;100011.44;;;13.93;66.57
66430;BME280;53242;51.694;10.006;2023-05-07T11:30:58;100000.41;;;14.23;66.04
66430;BME280;53242;51.694;10.006;2023-05-07T11:33:22;100004.44;;;14.53;65.68
66430;BME280;53242;51.694;10.006;2023-05-07T11:35:47;100013.25;;;14.26;64.72
66430;BME280;53242;51.694;10.006;2023-05-07T11:38:12;100008.56;;;14.35;64.43
66430;BME280;53242;51.694;10.006;2023-05-07T11:40:48;100024.91;;;13.92;65.37
66430;BME280;53242;51.694;10.006;2023-05-07T11:43:11;100026.56;;;14.13;65.65
66430;BME280;53242;51.694;10.006;2023-05-07T11:45:33;100023.47;;;14.23;65.90
66430;BME280;53242;51.694;10.006;2023-05-07T11:47:57;100032.44;;;14.48;65.63
66430;BME280;53242;51.694;10.006;2023-05-07T11:50:19;100016.88;;;14.59;64.65
66430;BME280;53242;51.694;10.006;2023-05-07T11:52:50;100015.69;;;14.48;65.07
66430;BME280;53242;51.694;10.006;2023-05-07T11:55:12;100017.31;;;14.42;64.52
66430;BME280;53242;51.694;10.006;2023-05-07T11:57:35;100017.72;;;14.66;63.53
66430;BME280;53242;51.694;10.006;2023-05-07T11:59:59;100025.44;;;14.88;63.57
66430;BME280;53242;51.694;10.006;2023-05-07T12:02:22;100021.66;;;15.09;63.31
66430;BME280;53242;51.694;10.006;2023-05-07T12:04:44;100024.41;;;14.82;63.98
66430;BME280;53242;51.694;10.006;2023-05-07T12:07:14;100022.69;;;15.08;62.01
66430;BME280;53242;51.694;10.006;2023-05-07T12:09:36;100021.19;;;15.25;62.50
66430;BME280;53242;51.694;10.006;2023-05-07T12:12:03;100027.78;;;15.16;62.58
66430;BME280;53242;51.694;10.006;2023-05-07T12:14:29;100009.19;;;15.48;62.46
66430;BME280;53242;51.694;10.006;2023-05-07T12:16:51;100018.63;;;14.99;63.12
66430;BME280;53242;51.694;10.006;2023-05-07T12:19:14;100013.31;;;15.44;62.15
66430;BME280;53242;51.694;10.006;2023-05-07T12:21:36;100008.44;;;15.66;61.68
66430;BME280;53242;51.694;10.006;2023-05-07T12:23:59;100017.78;;;15.50;60.84
66430;BME280;53242;51.694;10.006;2023-05-07T12:26:21;100009.38;;;15.85;60.16
66430;BME280;53242;51.694;10.006;2023-05-07T12:28:45;100015.34;;;16.06;60.00
66430;BME280;53242;51.694;10.006;2023-05-07T12:31:08;100003.28;;;15.78;60.65
66430;BME280;53242;51.694;10.006;2023-05-07T12:33:30;100009.00;;;16.32;59.33
66430;BME280;53242;51.694;10.006;2023-05-07T12:35:55;100011.88;;;16.31;59.87
66430;BME280;53242;51.694;10.006;2023-05-07T12:38:18;100005.31;;;16.33;59.54
66430;BME280;53242;51.694;10.006;2023-05-07T12:40:48;100021.06;;;15.84;59.53
66430;BME280;53242;51.694;10.006;2023-05-07T12:43:31;100012.38;;;16.21;58.82
66430;BME280;53242;51.694;10.006;2023-05-07T12:45:55;100006.00;;;15.97;59.76
66430;BME280;53242;51.694;10.006;2023-05-07T12:48:19;100005.94;;;16.28;59.62